Time;durP1;ratioP1;P1;durP2;ratioP2;P2;SDS_P1;SDS_P2;PMS_P1;PMS_P2;Temp;Humidity;BMP_temperature;BMP_pressure;BME280_temperature;BME280_humidity;BME280_pressure;Samples;Min_cycle;Max_cycle;Signal;HPM_P1;HPM_P2
2021/03/18 00:01:44;;;;;;;9.00;2.83;;;2.10;98.60;;;;;;4391563;32;20179;-66
2021/03/18 00:04:13;;;;;;;8.30;2.47;;;2.10;98.60;;;;;;4392090;32;20167;-64
2021/03/18 00:06:40;;;;;;;6.83;2.43;;;2.10;98.70;;;;;;4386017;32;20574;-70
2021/03/18 00:09:08;;;;;;;10.27;2.83;;;2.00;98.70;;;;;;4389633;32;20153;-68
2021/03/18 00:11:35;;;;;;;9.00;2.47;;;2.00;98.70;;;;;;4397833;32;20519;-65
2021/03/18 00:14:01;;;;;;;10.50;2.83;;;2.00;98.80;;;;;;4395545;32;20174;-68
2021/03/18 00:16:28;;;;;;;10.00;2.93;;;2.00;98.70;;;;;;4391581;32;20167;-66
2021/03/18 00:18:54;;;;;;;10.90;2.40;;;2.00;98.70;;;;;;4388074;32;20173;-67
2021/03/18 00:21:22;;;;;;;6.57;2.43;;;1.90;98.70;;;;;;4390314;32;20228;-64
2021/03/18 00:23:51;;;;;;;8.17;2.80;;;1.90;98.80;;;;;;4381806;32;20190;-66
2021/03/18 00:26:19;;;;;;;8.50;2.50;;;1.90;98.80;;;;;;4392219;32;20171;-65
2021/03/18 00:28:45;;;;;;;16.63;2.70;;;1.90;98.80;;;;;;4381374;32;20194;-64
2021/03/18 00:31:12;;;;;;;11.77;3.23;;;1.90;98.90;;;;;;4391408;32;20194;-67
2021/03/18 00:33:39;;;;;;;8.20;2.30;;;1.90;98.90;;;;;;4384412;32;20610;-65
2021/03/18 00:36:06;;;;;;;5.93;2.60;;;1.90;99.00;;;;;;4390453;32;20532;-66
2021/03/18 00:38:32;;;;;;;9.43;3.17;;;1.90;99.00;;;;;;4392557;32;20640;-68
2021/03/18 00:41:01;;;;;;;15.43;3.17;;;1.90;99.00;;;;;;4389732;32;20182;-66
2021/03/18 00:43:28;;;;;;;13.83;3.67;;;1.90;99.00;;;;;;4381138;32;20215;-69
2021/03/18 00:45:55;;;;;;;10.63;3.37;;;1.90;99.00;;;;;;4390173;32;20172;-66
2021/03/18 00:48:23;;;;;;;11.77;3.87;;;1.90;99.00;;;;;;4390623;32;20238;-65
2021/03/18 00:50:51;;;;;;;7.70;2.97;;;1.90;99.00;;;;;;4391409;32;20503;-64
2021/03/18 00:53:20;;;;;;;13.53;5.13;;;1.90;99.00;;;;;;4389733;32;20167;-68
2021/03/18 00:55:46;;;;;;;10.00;3.60;;;1.90;99.10;;;;;;4391700;32;20536;-64
2021/03/18 00:58:15;;;;;;;9.30;3.50;;;2.00;99.30;;;;;;4390533;32;20253;-65
2021/03/18 01:00:43;;;;;;;7.57;2.80;;;2.10;99.50;;;;;;4384508;32;20151;-67
2021/03/18 01:03:11;;;;;;;13.00;3.70;;;2.20;99.70;;;;;;4389166;32;20168;-67
2021/03/18 01:05:41;;;;;;;7.60;3.20;;;2.40;99.70;;;;;;4390339;32;20220;-66
2021/03/18 01:08:08;;;;;;;13.47;3.40;;;2.50;99.60;;;;;;4390830;32;20184;-65
2021/03/18 01:10:39;;;;;;;7.97;3.40;;;2.50;99.40;;;;;;4389843;32;20551;-67
2021/03/18 01:13:05;;;;;;;14.17;3.60;;;2.60;99.30;;;;;;4390784;32;20225;-65
2021/03/18 01:15:33;;;;;;;12.97;3.40;;;2.50;99.00;;;;;;4390498;32;20156;-66
2021/03/18 01:17:59;;;;;;;15.50;4.23;;;2.50;98.80;;;;;;4388843;32;20223;-66
2021/03/18 01:20:26;;;;;;;8.37;3.13;;;2.40;98.70;;;;;;4379841;32;20226;-65
2021/03/18 01:22:53;;;;;;;10.37;3.73;;;2.40;98.80;;;;;;4386143;32;20204;-68
2021/03/18 01:25:19;;;;;;;10.60;3.03;;;2.40;98.90;;;;;;4381675;32;20277;-65
2021/03/18 01:27:45;;;;;;;11.30;3.90;;;2.40;98.90;;;;;;4390012;32;20592;-63
2021/03/18 01:30:14;;;;;;;8.70;3.47;;;2.30;98.70;;;;;;4383342;32;20251;-64
2021/03/18 01:32:42;;;;;;;6.20;3.10;;;2.30;98.70;;;;;;4382167;32;20167;-67
2021/03/18 01:35:11;;;;;;;12.73;4.53;;;2.30;98.80;;;;;;4391887;32;20201;-66
2021/03/18 01:37:38;;;;;;;6.97;3.43;;;2.20;98.80;;;;;;4385917;32;20186;-65
2021/03/18 01:40:06;;;;;;;9.77;3.03;;;2.20;98.90;;;;;;4391373;32;20208;-66
2021/03/18 01:42:32;;;;;;;9.90;3.37;;;2.20;98.90;;;;;;4390599;32;20232;-65
2021/03/18 01:44:59;;;;;;;9.30;3.07;;;2.20;99.00;;;;;;4388428;32;20184;-67
2021/03/18 01:47:25;;;;;;;10.10;2.97;;;2.30;99.10;;;;;;4389971;32;20152;-66
2021/03/18 01:49:52;;;;;;;8.53;3.50;;;2.20;99.10;;;;;;4389434;32;20159;-65
2021/03/18 01:52:19;;;;;;;9.53;3.00;;;2.20;99.10;;;;;;4389165;32;20224;-68
2021/03/18 01:54:45;;;;;;;7.97;3.53;;;2.10;99.00;;;;;;4391311;32;20496;-66
2021/03/18 01:57:12;;;;;;;7.63;3.30;;;2.10;99.00;;;;;;4385003;32;20555;-67
2021/03/18 01:59:38;;;;;;;10.07;3.10;;;2.10;99.00;;;;;;4386631;32;20556;-67
2021/03/18 02:02:05;;;;;;;9.93;3.40;;;2.10;99.00;;;;;;4391300;32;20191;-67
2021/03/18 02:04:31;;;;;;;7.10;3.17;;;2.10;99.00;;;;;;4389496;32;20255;-63
2021/03/18 02:06:58;;;;;;;7.63;3.37;;;2.10;99.00;;;;;;4389057;32;20548;-64
2021/03/18 02:09:26;;;;;;;11.77;3.40;;;2.00;99.00;;;;;;4390651;32;20213;-68
2021/03/18 02:11:53;;;;;;;16.43;3.50;;;2.10;99.10;;;;;;4389762;32;20195;-67
2021/03/18 02:14:20;;;;;;;8.70;3.37;;;2.10;99.20;;;;;;4387894;32;20194;-66
2021/03/18 02:16:50;;;;;;;8.67;3.67;;;2.10;99.20;;;;;;4390205;32;20215;-65
2021/03/18 02:19:40;;;;;;;8.33;3.70;;;2.10;99.20;;;;;;4386976;32;20159;-66
2021/03/18 02:22:48;;;;;;;9.63;3.10;;;2.10;99.20;;;;;;4380488;32;20246;-64
2021/03/18 02:25:21;;;;;;;12.40;4.07;;;2.10;99.20;;;;;;4341356;32;20647;-66
2021/03/18 02:28:18;;;;;;;13.00;3.97;;;2.20;99.20;;;;;;4343896;33;20594;-66
2021/03/18 02:31:00;;;;;;;10.20;3.60;;;2.10;99.20;;;;;;4340689;33;20728;-66
2021/03/18 02:34:00;;;;;;;16.33;4.00;;;2.20;99.20;;;;;;4342639;33;20180;-67
2021/03/18 02:36:40;;;;;;;19.97;3.90;;;2.10;99.00;;;;;;4343752;33;20181;-68
2021/03/18 02:39:14;;;;;;;8.40;3.40;;;2.10;99.00;;;;;;4341609;33;20188;-65
2021/03/18 02:41:46;;;;;;;11.43;3.40;;;2.00;99.00;;;;;;4338425;33;20168;-64
2021/03/18 02:44:17;;;;;;;8.00;3.63;;;2.00;99.00;;;;;;4332472;33;20229;-65
2021/03/18 02:46:44;;;;;;;16.50;4.47;;;2.00;98.90;;;;;;4346405;33;20630;-66
2021/03/18 02:49:13;;;;;;;12.87;3.73;;;1.90;98.90;;;;;;4333518;33;20161;-66
2021/03/18 02:51:42;;;;;;;8.30;3.23;;;1.80;99.00;;;;;;4346423;33;20232;-67
2021/03/18 02:54:10;;;;;;;8.67;3.57;;;1.90;99.10;;;;;;4345748;33;20206;-65
2021/03/18 02:56:40;;;;;;;10.53;4.13;;;1.80;99.10;;;;;;4344546;33;20185;-64
2021/03/18 02:59:09;;;;;;;10.37;3.63;;;1.90;99.20;;;;;;4344167;33;20463;-68
2021/03/18 03:01:36;;;;;;;7.53;3.63;;;1.80;99.20;;;;;;4364934;32;20182;-66
2021/03/18 03:04:04;;;;;;;10.17;3.60;;;1.90;99.30;;;;;;4385173;32;20234;-67
2021/03/18 03:06:32;;;;;;;9.70;4.10;;;1.90;99.30;;;;;;4392164;32;20509;-65
2021/03/18 03:09:01;;;;;;;10.57;3.77;;;2.00;99.40;;;;;;4391697;32;20160;-67
2021/03/18 03:11:28;;;;;;;11.60;3.53;;;2.00;99.40;;;;;;4396337;32;20159;-64
2021/03/18 03:13:56;;;;;;;9.17;3.83;;;2.10;99.30;;;;;;4392908;32;20571;-68
2021/03/18 03:16:23;;;;;;;11.27;3.97;;;2.10;99.30;;;;;;4391921;32;20473;-65
2021/03/18 03:18:52;;;;;;;13.30;4.67;;;2.20;99.30;;;;;;4390981;32;20176;-68
2021/03/18 03:21:22;;;;;;;14.70;4.20;;;2.20;99.30;;;;;;4391052;32;20190;-64
2021/03/18 03:23:48;;;;;;;8.30;3.60;;;2.30;99.40;;;;;;4383242;32;20172;-64
2021/03/18 03:26:19;;;;;;;7.17;3.53;;;2.40;99.40;;;;;;4392163;32;20160;-63
2021/03/18 03:28:48;;;;;;;7.07;3.70;;;2.50;99.30;;;;;;4392762;32;20183;-67
2021/03/18 03:31:15;;;;;;;12.03;4.17;;;2.60;99.10;;;;;;4393010;32;20159;-66
2021/03/18 03:33:41;;;;;;;11.77;4.80;;;2.70;99.00;;;;;;4392119;32;20521;-68
2021/03/18 03:36:08;;;;;;;11.77;4.83;;;2.70;98.80;;;;;;4379551;32;20216;-65
2021/03/18 03:38:35;;;;;;;9.00;4.50;;;2.80;98.70;;;;;;4382553;32;20216;-66
2021/03/18 03:41:01;;;;;;;8.10;4.23;;;2.90;98.60;;;;;;4391337;32;20302;-68
2021/03/18 03:43:29;;;;;;;9.93;4.63;;;3.00;98.50;;;;;;4393249;32;20204;-65
2021/03/18 03:45:55;;;;;;;8.30;4.63;;;3.00;98.40;;;;;;4391558;32;20171;-66
2021/03/18 03:48:24;;;;;;;8.97;4.73;;;3.00;98.40;;;;;;4387858;32;20545;-68
2021/03/18 03:50:52;;;;;;;7.90;4.80;;;3.00;98.40;;;;;;4390976;32;20170;-67
2021/03/18 03:53:24;;;;;;;12.30;5.03;;;3.00;98.40;;;;;;4391874;32;20174;-66
2021/03/18 03:55:55;;;;;;;11.57;5.30;;;3.10;98.50;;;;;;4392821;32;20176;-64
2021/03/18 03:58:35;;;;;;;12.97;4.87;;;3.10;98.50;;;;;;4387386;32;20156;-67
2021/03/18 04:01:05;;;;;;;12.47;5.27;;;3.20;98.50;;;;;;4390097;32;20203;-68
2021/03/18 04:03:35;;;;;;;13.47;7.07;;;3.20;98.50;;;;;;4391079;32;20227;-67
2021/03/18 04:06:04;;;;;;;11.87;5.03;;;3.20;98.50;;;;;;4390648;32;20224;-64
2021/03/18 04:08:33;;;;;;;14.27;5.33;;;3.30;98.60;;;;;;4385896;32;20336;-65
2021/03/18 04:11:02;;;;;;;14.27;5.07;;;3.20;98.50;;;;;;4390363;32;20178;-64
2021/03/18 04:13:32;;;;;;;9.97;4.60;;;3.30;98.60;;;;;;4389558;32;20187;-66
2021/03/18 04:16:00;;;;;;;10.40;5.33;;;3.30;98.50;;;;;;4378143;32;20231;-67
2021/03/18 04:18:30;;;;;;;12.10;5.17;;;3.30;98.50;;;;;;4389321;32;20183;-67
2021/03/18 04:20:58;;;;;;;18.57;5.40;;;3.30;98.40;;;;;;4387312;32;20599;-67
2021/03/18 04:23:29;;;;;;;14.70;5.83;;;3.30;98.40;;;;;;4389653;32;20605;-69
2021/03/18 04:25:58;;;;;;;10.33;5.17;;;3.30;98.40;;;;;;4392433;32;20584;-66
2021/03/18 04:28:26;;;;;;;9.33;5.17;;;3.40;98.50;;;;;;4391068;32;20566;-64
2021/03/18 04:30:54;;;;;;;12.93;5.23;;;3.40;98.50;;;;;;4390602;32;20603;-64
2021/03/18 04:33:21;;;;;;;15.40;5.80;;;3.30;98.40;;;;;;4389052;32;20223;-65
2021/03/18 04:35:48;;;;;;;8.80;4.87;;;3.30;98.50;;;;;;4391429;32;20151;-67
2021/03/18 04:38:14;;;;;;;15.73;6.97;;;3.30;98.60;;;;;;4390358;32;20156;-66
2021/03/18 04:40:41;;;;;;;15.37;5.80;;;3.20;98.60;;;;;;4390122;32;20152;-68
2021/03/18 04:43:08;;;;;;;15.67;6.57;;;3.30;98.70;;;;;;4391028;32;20176;-67
2021/03/18 04:45:35;;;;;;;15.30;6.07;;;3.30;98.70;;;;;;4390251;32;20218;-64
2021/03/18 04:48:03;;;;;;;9.93;5.93;;;3.20;98.80;;;;;;4390210;32;20222;-67
2021/03/18 04:50:30;;;;;;;16.37;6.10;;;3.20;98.80;;;;;;4389413;32;20722;-66
2021/03/18 04:52:57;;;;;;;11.77;6.50;;;3.30;98.80;;;;;;4386004;32;20152;-67
2021/03/18 04:55:27;;;;;;;15.43;6.43;;;3.30;98.80;;;;;;4379835;32;20187;-67
2021/03/18 04:57:58;;;;;;;12.47;5.73;;;3.30;98.80;;;;;;4382915;32;20215;-65
2021/03/18 05:00:26;;;;;;;11.93;6.47;;;3.40;98.70;;;;;;4378760;32;20198;-65
2021/03/18 05:02:54;;;;;;;14.87;6.77;;;3.40;98.70;;;;;;4389913;32;20164;-66
2021/03/18 05:05:22;;;;;;;21.47;6.77;;;3.40;98.70;;;;;;4389027;32;20176;-63
2021/03/18 05:07:52;;;;;;;16.73;6.43;;;3.40;98.60;;;;;;4388684;32;20203;-66
2021/03/18 05:10:21;;;;;;;15.63;6.60;;;3.40;98.60;;;;;;4390153;32;20213;-66
2021/03/18 05:12:49;;;;;;;13.23;7.17;;;3.50;98.60;;;;;;4380459;32;20171;-64
2021/03/18 05:15:16;;;;;;;11.67;6.73;;;3.40;98.50;;;;;;4379771;32;20176;-67
2021/03/18 05:17:44;;;;;;;18.37;7.17;;;3.40;98.60;;;;;;4384455;32;20608;-66
2021/03/18 05:20:13;;;;;;;14.90;7.10;;;3.40;98.70;;;;;;4388957;32;20178;-67
2021/03/18 05:22:40;;;;;;;15.63;7.00;;;3.40;98.70;;;;;;4390469;32;20152;-64
2021/03/18 05:25:11;;;;;;;14.60;7.47;;;3.50;98.80;;;;;;4387347;32;20543;-66
2021/03/18 05:27:39;;;;;;;13.87;6.43;;;3.40;98.70;;;;;;4390611;32;20156;-65
2021/03/18 05:30:08;;;;;;;11.73;6.63;;;3.40;98.70;;;;;;4388948;32;20186;-65
2021/03/18 05:32:35;;;;;;;11.10;7.13;;;3.40;98.70;;;;;;4391264;32;20261;-67
2021/03/18 05:35:01;;;;;;;12.23;7.03;;;3.30;98.70;;;;;;4388468;32;20231;-65
2021/03/18 05:37:28;;;;;;;15.03;7.03;;;3.30;98.70;;;;;;4375813;32;20211;-65
2021/03/18 05:39:55;;;;;;;15.40;8.00;;;3.30;98.80;;;;;;4386929;32;20179;-65
2021/03/18 05:42:22;;;;;;;13.13;7.57;;;3.20;98.90;;;;;;4379544;32;20184;-66
2021/03/18 05:44:48;;;;;;;12.80;7.47;;;3.10;98.90;;;;;;4389158;32;20171;-67
2021/03/18 05:47:15;;;;;;;15.67;7.80;;;3.10;99.00;;;;;;4389838;32;20593;-64
2021/03/18 05:49:45;;;;;;;13.27;7.30;;;3.20;99.10;;;;;;4388637;32;20211;-66
2021/03/18 05:52:12;;;;;;;15.43;7.83;;;3.20;99.10;;;;;;4391634;32;20217;-66
2021/03/18 05:54:41;;;;;;;19.30;8.43;;;3.20;99.10;;;;;;4391166;32;20172;-64
2021/03/18 05:57:11;;;;;;;14.50;8.47;;;3.20;99.20;;;;;;4389565;32;20174;-65
2021/03/18 05:59:37;;;;;;;19.47;9.37;;;3.20;99.20;;;;;;4384063;32;20562;-65
2021/03/18 06:02:04;;;;;;;18.43;9.70;;;3.20;99.30;;;;;;4384854;32;20308;-66
2021/03/18 06:04:30;;;;;;;20.03;9.47;;;3.20;99.30;;;;;;4388879;32;20194;-66
2021/03/18 06:06:59;;;;;;;21.20;10.47;;;3.30;99.40;;;;;;4387313;32;20200;-64
2021/03/18 06:09:26;;;;;;;21.10;9.57;;;3.40;99.40;;;;;;4389256;32;20221;-64
2021/03/18 06:11:52;;;;;;;15.57;8.67;;;3.40;99.30;;;;;;4395938;32;20192;-67
2021/03/18 06:14:20;;;;;;;18.03;9.87;;;3.40;99.30;;;;;;4388748;32;20168;-67
2021/03/18 06:16:48;;;;;;;20.97;10.53;;;3.50;99.20;;;;;;4383983;32;20160;-65
2021/03/18 06:19:14;;;;;;;17.00;9.40;;;3.50;99.20;;;;;;4379938;32;20233;-64
2021/03/18 06:21:45;;;;;;;22.87;10.67;;;3.60;99.10;;;;;;4386717;32;20207;-66
2021/03/18 06:24:13;;;;;;;15.43;9.10;;;3.60;99.10;;;;;;4389134;32;20160;-63
2021/03/18 06:26:40;;;;;;;12.87;9.17;;;3.60;99.10;;;;;;4386591;32;20216;-65
2021/03/18 06:29:28;;;;;;;23.50;10.33;;;3.70;99.10;;;;;;4384866;32;20198;-68
2021/03/18 06:31:55;;;;;;;19.23;10.10;;;3.80;99.10;;;;;;4381331;32;20789;-64
2021/03/18 06:34:41;;;;;;;22.03;9.70;;;3.80;99.00;;;;;;4385862;32;20189;-69
2021/03/18 06:37:28;;;;;;;20.03;9.20;;;3.90;98.90;;;;;;4385844;32;20171;-69
2021/03/18 06:39:55;;;;;;;18.77;9.63;;;4.10;98.80;;;;;;4387523;32;20175;-65
2021/03/18 06:42:21;;;;;;;26.60;10.87;;;4.00;98.70;;;;;;4385278;32;20229;-66
2021/03/18 06:44:49;;;;;;;23.10;10.00;;;4.10;98.60;;;;;;4386286;32;20191;-67
2021/03/18 06:47:17;;;;;;;31.20;11.57;;;4.10;98.60;;;;;;4387521;32;20219;-65
2021/03/18 06:49:43;;;;;;;13.97;9.37;;;4.20;98.50;;;;;;4387065;32;20227;-65
2021/03/18 06:52:13;;;;;;;14.87;9.33;;;4.30;98.50;;;;;;4387903;32;20180;-66
2021/03/18 06:54:42;;;;;;;18.30;10.40;;;4.30;98.40;;;;;;4387541;32;20156;-65
2021/03/18 06:57:09;;;;;;;19.37;10.23;;;4.30;98.50;;;;;;4386650;32;20165;-65
2021/03/18 06:59:37;;;;;;;19.87;10.40;;;4.40;98.50;;;;;;4388464;32;20491;-63
2021/03/18 07:02:06;;;;;;;19.40;9.70;;;4.50;98.70;;;;;;4385700;32;20233;-67
2021/03/18 07:04:34;;;;;;;22.87;9.40;;;4.60;98.40;;;;;;4384735;32;20152;-67
2021/03/18 07:07:00;;;;;;;23.47;9.37;;;4.70;98.30;;;;;;4382886;32;20198;-68
2021/03/18 07:09:29;;;;;;;20.63;9.63;;;4.70;98.20;;;;;;4384482;32;20156;-66
2021/03/18 07:12:00;;;;;;;22.07;9.17;;;4.80;98.10;;;;;;4379302;32;20259;-64
2021/03/18 07:14:34;;;;;;;23.03;8.73;;;4.90;98.10;;;;;;4382088;32;20261;-65
2021/03/18 07:17:01;;;;;;;20.53;8.33;;;5.00;98.10;;;;;;4379773;32;20295;-64
2021/03/18 07:19:30;;;;;;;22.80;9.67;;;5.10;98.00;;;;;;4376310;32;20204;-67
2021/03/18 07:21:58;;;;;;;29.37;9.70;;;5.30;98.00;;;;;;4378212;32;20554;-65
2021/03/18 07:24:49;;;;;;;18.47;8.17;;;5.30;97.70;;;;;;4387488;32;20156;-70
2021/03/18 07:27:16;;;;;;;33.60;9.43;;;5.40;97.50;;;;;;4381365;32;20153;-68
2021/03/18 07:29:55;;;;;;;22.03;8.40;;;5.60;97.40;;;;;;4381962;32;20449;-67
2021/03/18 07:32:21;;;;;;;26.87;7.73;;;5.80;97.10;;;;;;4385980;32;20595;-66
2021/03/18 07:34:49;;;;;;;21.37;6.83;;;6.00;96.70;;;;;;4387417;32;20184;-66
2021/03/18 07:37:15;;;;;;;15.80;7.50;;;6.10;96.70;;;;;;4386384;32;20267;-69
2021/03/18 07:39:42;;;;;;;22.30;7.43;;;6.30;96.40;;;;;;4381808;32;21693;-65
2021/03/18 07:42:10;;;;;;;23.07;6.60;;;6.50;96.40;;;;;;4384593;32;20187;-65
2021/03/18 07:44:37;;;;;;;17.03;7.33;;;6.60;96.10;;;;;;4380133;32;20218;-65
2021/03/18 07:47:04;;;;;;;14.23;6.17;;;6.90;95.50;;;;;;4382285;32;20219;-65
2021/03/18 07:49:37;;;;;;;17.53;6.80;;;7.20;95.30;;;;;;4386706;32;20686;-64
2021/03/18 07:52:06;;;;;;;28.60;6.70;;;7.30;94.80;;;;;;4383307;32;20176;-65
2021/03/18 07:54:33;;;;;;;21.70;7.93;;;7.30;94.50;;;;;;4388789;32;20587;-65
2021/03/18 07:56:59;;;;;;;23.20;6.90;;;7.30;94.90;;;;;;4383546;32;20184;-68
2021/03/18 07:59:31;;;;;;;30.23;7.83;;;7.40;94.50;;;;;;4387035;32;20172;-67
2021/03/18 08:02:11;;;;;;;23.13;6.77;;;7.50;94.20;;;;;;4388741;32;20212;-66
2021/03/18 08:04:40;;;;;;;17.73;5.70;;;7.60;93.90;;;;;;4384981;32;20486;-69
2021/03/18 08:07:08;;;;;;;24.23;6.83;;;7.50;94.10;;;;;;4383881;32;20176;-70
2021/03/18 08:09:59;;;;;;;20.03;6.00;;;7.50;94.10;;;;;;4379743;32;20238;-70
2021/03/18 08:12:56;;;;;;;24.13;5.73;;;7.40;94.10;;;;;;4380401;32;20172;-66
2021/03/18 08:15:34;;;;;;;22.00;5.83;;;7.40;94.50;;;;;;4329434;33;20172;-66
2021/03/18 08:18:36;;;;;;;20.43;6.77;;;7.50;94.10;;;;;;4327965;33;20618;-66
2021/03/18 08:21:07;;;;;;;37.30;6.90;;;7.70;94.10;;;;;;4330003;33;20227;-66
2021/03/18 08:23:41;;;;;;;22.77;6.27;;;7.90;93.70;;;;;;4329773;33;20182;-68
2021/03/18 08:26:10;;;;;;;29.73;7.50;;;8.00;93.70;;;;;;4330009;33;20195;-66
2021/03/18 08:28:40;;;;;;;26.87;7.70;;;8.00;93.50;;;;;;4329437;33;20217;-66
2021/03/18 08:31:08;;;;;;;42.90;7.03;;;8.00;93.50;;;;;;4329195;33;20172;-66
2021/03/18 08:33:36;;;;;;;29.57;7.67;;;7.90;93.60;;;;;;4330052;33;20180;-66
2021/03/18 08:36:22;;;;;;;32.27;7.53;;;8.00;93.60;;;;;;4329182;33;20225;-66
2021/03/18 08:38:52;;;;;;;37.27;7.33;;;8.20;93.50;;;;;;4328016;33;20157;-67
2021/03/18 08:41:31;;;;;;;39.47;7.67;;;8.10;93.10;;;;;;4329248;33;20244;-65
2021/03/18 08:44:17;;;;;;;35.20;8.27;;;8.30;93.10;;;;;;4347909;32;1155030;-66
2021/03/18 08:46:48;;;;;;;36.73;9.40;;;8.30;92.70;;;;;;4391009;32;20685;-68
2021/03/18 08:49:20;;;;;;;40.17;9.33;;;7.80;93.40;;;;;;4391333;32;20220;-69
2021/03/18 08:51:47;;;;;;;32.77;9.03;;;7.90;93.80;;;;;;4377285;32;20213;-67
2021/03/18 08:54:49;;;;;;;33.13;10.13;;;8.10;93.60;;;;;;4382126;32;20175;-66
2021/03/18 08:57:25;;;;;;;46.93;10.63;;;7.90;93.60;;;;;;4391128;32;20158;-66
2021/03/18 08:59:53;;;;;;;34.27;8.50;;;7.50;93.70;;;;;;4388908;32;20215;-67
2021/03/18 09:02:23;;;;;;;40.00;11.47;;;7.70;94.30;;;;;;4377903;32;20148;-69
2021/03/18 09:04:51;;;;;;;42.70;8.90;;;7.80;93.90;;;;;;4390852;32;20484;-65
2021/03/18 09:07:20;;;;;;;32.30;8.30;;;8.10;93.70;;;;;;4388323;32;20148;-66
2021/03/18 09:09:47;;;;;;;37.13;8.77;;;8.10;93.70;;;;;;4388902;32;20151;-66
2021/03/18 09:12:13;;;;;;;34.00;8.33;;;8.30;93.30;;;;;;4388767;32;20166;-66
2021/03/18 09:14:41;;;;;;;32.43;8.23;;;8.50;93.20;;;;;;4388905;32;20655;-65
2021/03/18 09:17:09;;;;;;;35.63;8.30;;;8.50;92.30;;;;;;4389551;32;20265;-69
2021/03/18 09:19:36;;;;;;;35.70;8.20;;;8.40;92.60;;;;;;4389014;32;20234;-69
2021/03/18 09:22:04;;;;;;;40.40;10.03;;;8.80;92.60;;;;;;4389401;32;20239;-66
2021/03/18 09:24:34;;;;;;;32.13;7.93;;;9.00;91.80;;;;;;4385296;32;20203;-67
2021/03/18 09:27:06;;;;;;;36.10;8.77;;;8.90;91.80;;;;;;4388539;32;20215;-67
2021/03/18 09:29:32;;;;;;;29.13;8.43;;;8.60;91.50;;;;;;4390046;32;20706;-67
2021/03/18 09:32:03;;;;;;;33.53;8.30;;;8.70;92.10;;;;;;4385701;32;20166;-67
2021/03/18 09:34:33;;;;;;;25.37;7.93;;;8.90;91.20;;;;;;4386139;32;20144;-68
2021/03/18 09:37:00;;;;;;;37.10;9.47;;;8.30;91.70;;;;;;4388662;32;20581;-68
2021/03/18 09:39:26;;;;;;;27.70;8.33;;;8.10;92.30;;;;;;4380529;32;20215;-67
2021/03/18 09:41:58;;;;;;;28.33;9.47;;;8.00;92.50;;;;;;4382673;32;20223;-68
2021/03/18 09:44:27;;;;;;;29.87;8.80;;;7.90;92.80;;;;;;4384384;32;20191;-67
2021/03/18 09:46:56;;;;;;;32.37;7.50;;;8.20;93.10;;;;;;4383816;32;20256;-67
2021/03/18 09:49:30;;;;;;;28.80;6.90;;;8.20;92.00;;;;;;4385925;32;20600;-67
2021/03/18 09:51:57;;;;;;;28.57;7.00;;;8.50;91.60;;;;;;4380926;32;20203;-66
2021/03/18 09:54:24;;;;;;;39.37;8.97;;;8.20;91.70;;;;;;4380481;32;20263;-65
2021/03/18 09:56:52;;;;;;;36.53;8.40;;;7.70;92.20;;;;;;4382646;32;20149;-69
2021/03/18 09:59:24;;;;;;;31.87;9.20;;;7.70;92.70;;;;;;4383376;32;20167;-71
2021/03/18 10:01:51;;;;;;;32.83;8.47;;;7.60;93.20;;;;;;4378709;32;20156;-69
2021/03/18 10:04:20;;;;;;;33.63;8.13;;;7.70;92.90;;;;;;4381910;32;20175;-66
2021/03/18 10:06:48;;;;;;;24.83;7.43;;;7.90;92.70;;;;;;4383348;32;20259;-67
2021/03/18 10:09:18;;;;;;;29.60;7.63;;;7.90;92.30;;;;;;4387001;32;20148;-69
2021/03/18 10:11:46;;;;;;;28.63;7.17;;;8.00;92.50;;;;;;4388636;32;20236;-66
2021/03/18 10:14:14;;;;;;;29.10;9.30;;;8.30;92.10;;;;;;4383281;32;20140;-68
2021/03/18 10:16:41;;;;;;;24.70;7.27;;;8.20;91.90;;;;;;4382801;32;20226;-66
2021/03/18 10:19:09;;;;;;;30.77;7.97;;;8.20;91.50;;;;;;4382110;32;20174;-66
2021/03/18 10:21:36;;;;;;;25.37;7.00;;;8.00;91.70;;;;;;4383445;32;20172;-66
2021/03/18 10:24:05;;;;;;;27.13;6.40;;;7.90;92.00;;;;;;4383851;32;20144;-69
2021/03/18 10:26:32;;;;;;;25.77;6.03;;;8.10;91.30;;;;;;4386179;32;20504;-66
2021/03/18 10:28:59;;;;;;;32.20;8.40;;;8.50;90.90;;;;;;4385005;32;20148;-66
2021/03/18 10:31:26;;;;;;;23.47;6.87;;;8.80;90.50;;;;;;4388557;32;20242;-66
2021/03/18 10:33:52;;;;;;;20.87;7.20;;;9.20;90.00;;;;;;4388880;32;20438;-66
2021/03/18 10:36:32;;;;;;;18.40;5.63;;;10.00;89.60;;;;;;4386619;32;20152;-66
2021/03/18 10:39:00;;;;;;;25.13;5.63;;;10.40;86.90;;;;;;4387657;32;20179;-66
2021/03/18 10:41:28;;;;;;;21.53;5.77;;;10.40;83.80;;;;;;4388781;32;20143;-66
2021/03/18 10:43:54;;;;;;;24.53;5.30;;;10.80;82.30;;;;;;4381969;32;20269;-66
2021/03/18 10:46:29;;;;;;;21.37;5.20;;;10.60;81.60;;;;;;4390581;32;20468;-66
2021/03/18 10:48:55;;;;;;;21.97;5.80;;;11.10;81.10;;;;;;4379244;32;20160;-67
2021/03/18 10:51:22;;;;;;;25.50;5.47;;;10.50;81.10;;;;;;4386884;32;20472;-67
2021/03/18 10:53:50;;;;;;;24.00;5.77;;;10.10;82.80;;;;;;4388281;32;20145;-66
2021/03/18 10:56:23;;;;;;;28.17;6.00;;;9.80;82.60;;;;;;4390090;32;20153;-66
2021/03/18 10:58:51;;;;;;;19.63;4.93;;;9.30;84.70;;;;;;4388596;32;20144;-66
2021/03/18 11:01:22;;;;;;;20.70;4.70;;;9.30;85.90;;;;;;4386182;32;20203;-66
2021/03/18 11:03:48;;;;;;;24.37;5.97;;;9.40;85.90;;;;;;4389023;32;20151;-66
2021/03/18 11:06:17;;;;;;;22.10;5.40;;;9.70;86.50;;;;;;4393652;32;20152;-66
2021/03/18 11:08:47;;;;;;;21.20;5.17;;;10.00;84.70;;;;;;4389118;32;20152;-66
2021/03/18 11:11:15;;;;;;;20.23;5.33;;;10.30;84.00;;;;;;4393628;32;20201;-66
2021/03/18 11:13:43;;;;;;;19.10;5.20;;;10.60;83.60;;;;;;4392355;32;20145;-66
2021/03/18 11:16:11;;;;;;;16.93;4.80;;;10.40;81.90;;;;;;4392091;32;20162;-65
2021/03/18 11:18:40;;;;;;;28.80;6.40;;;10.30;83.20;;;;;;4388740;32;20563;-66
2021/03/18 11:21:20;;;;;;;26.97;5.40;;;10.20;83.10;;;;;;4383781;32;20176;-66
2021/03/18 11:23:47;;;;;;;25.00;6.10;;;10.10;83.70;;;;;;4378747;32;20184;-65
2021/03/18 11:26:14;;;;;;;22.93;5.10;;;10.10;84.00;;;;;;4380988;32;20243;-66
2021/03/18 11:28:53;;;;;;;23.57;5.13;;;9.70;83.00;;;;;;4377169;32;20494;-66
2021/03/18 11:31:22;;;;;;;22.73;5.70;;;9.80;84.30;;;;;;4378489;32;20148;-66
2021/03/18 11:33:49;;;;;;;20.27;5.77;;;9.40;85.10;;;;;;4382678;32;20152;-66
2021/03/18 11:36:16;;;;;;;20.20;5.20;;;8.80;88.00;;;;;;4380154;32;20168;-66
2021/03/18 11:38:43;;;;;;;15.87;5.57;;;9.00;88.40;;;;;;4383642;32;20148;-65
2021/03/18 11:41:10;;;;;;;22.57;5.70;;;9.60;88.00;;;;;;4384250;32;20581;-67
2021/03/18 11:43:37;;;;;;;21.67;5.17;;;10.20;86.00;;;;;;4391104;32;20506;-66
2021/03/18 11:46:04;;;;;;;20.27;5.17;;;10.70;83.30;;;;;;4391544;32;20171;-67
2021/03/18 11:48:33;;;;;;;16.33;4.10;;;11.10;80.60;;;;;;4388960;32;20148;-66
2021/03/18 11:50:59;;;;;;;21.07;4.60;;;10.30;81.20;;;;;;4388703;32;20167;-67
2021/03/18 11:53:26;;;;;;;15.80;4.37;;;10.70;81.10;;;;;;4392158;32;20145;-67
2021/03/18 11:55:52;;;;;;;18.37;3.93;;;10.90;78.90;;;;;;4388539;32;20161;-67
2021/03/18 11:58:19;;;;;;;30.53;6.20;;;11.40;79.10;;;;;;4385270;32;20231;-67
2021/03/18 12:00:46;;;;;;;20.63;4.73;;;10.20;80.80;;;;;;4390037;32;20165;-66
2021/03/18 12:03:13;;;;;;;18.27;4.33;;;10.90;81.80;;;;;;4391312;32;20540;-67
2021/03/18 12:05:42;;;;;;;13.30;4.20;;;11.10;80.00;;;;;;4388707;32;20783;-65
2021/03/18 12:08:10;;;;;;;17.63;5.33;;;10.80;79.80;;;;;;4390159;32;20161;-66
2021/03/18 12:10:37;;;;;;;19.00;4.37;;;10.40;81.10;;;;;;4390077;32;20141;-66
2021/03/18 12:13:09;;;;;;;14.47;4.30;;;10.30;81.90;;;;;;4386614;32;20627;-65
2021/03/18 12:15:35;;;;;;;21.23;5.07;;;9.90;83.20;;;;;;4389001;32;20153;-65
2021/03/18 12:18:02;;;;;;;16.97;3.00;;;9.30;83.10;;;;;;4384538;32;20156;-65
2021/03/18 12:20:29;;;;;;;18.03;3.53;;;9.30;85.40;;;;;;4390676;32;20167;-65
2021/03/18 12:22:57;;;;;;;12.03;3.40;;;9.60;85.40;;;;;;4390705;32;20183;-65
2021/03/18 12:25:24;;;;;;;17.40;3.80;;;9.70;82.50;;;;;;4392109;32;20144;-65
2021/03/18 12:27:52;;;;;;;11.53;3.63;;;10.10;82.20;;;;;;4387038;32;20164;-65
2021/03/18 12:30:21;;;;;;;13.20;2.80;;;10.70;80.30;;;;;;4384535;32;20255;-65
2021/03/18 12:32:49;;;;;;;15.00;3.90;;;11.00;78.30;;;;;;4385762;32;20220;-67
2021/03/18 12:35:16;;;;;;;18.93;3.97;;;11.00;76.40;;;;;;4382905;32;20152;-66
2021/03/18 12:37:43;;;;;;;17.13;3.90;;;10.50;77.80;;;;;;4380218;32;20194;-65
2021/03/18 12:40:12;;;;;;;18.90;3.87;;;9.50;80.00;;;;;;4388145;32;20175;-66
2021/03/18 12:42:38;;;;;;;21.50;3.97;;;9.00;82.10;;;;;;4391373;32;20209;-65
2021/03/18 12:45:07;;;;;;;23.03;5.13;;;8.70;84.40;;;;;;4391718;32;20204;-66
2021/03/18 12:47:33;;;;;;;16.93;3.77;;;9.10;84.50;;;;;;4392439;32;20477;-66
2021/03/18 12:49:59;;;;;;;16.33;3.70;;;9.50;83.40;;;;;;4386468;32;20144;-66
2021/03/18 12:52:26;;;;;;;30.10;4.90;;;9.70;81.50;;;;;;4380332;32;20169;-67
2021/03/18 12:54:52;;;;;;;20.77;4.00;;;9.60;79.90;;;;;;4378220;32;20627;-65
2021/03/18 12:57:20;;;;;;;17.13;3.70;;;9.70;80.00;;;;;;4383709;32;20163;-66
2021/03/18 12:59:46;;;;;;;16.07;3.70;;;9.80;79.30;;;;;;4387064;32;20148;-65